Purki — 9HA2386 — position and weather

sailwx.info

Track history (hours):
 
Tides and Currents Weather Stations Pressure Air Temp Water Temp Dewpoint Dewpoint Depression Visibility Wind Speed Wind Dir Waves Ship Positions

Purki

Last reported at 2017-Mar-22 14:20 UTC. Time now 2017-Mar-28 09:58 UTC.
Position N 36°57' E 012°40'.

Length 146 m; draft 9.1 m.

Type: Cargo ship. MMSI: 248495000.

Date/timePositionNaut miles runAvg speedWind from/ knotsBaromVisibWave heightAir tempDewpointWater temp
2017-Mar-22 14:20N 36°57' E 012°40'1512.4
2017-Mar-22 13:06N 36°54' E 012°59'712.6
2017-Mar-22 12:34N 36°53' E 013°08'1212.2
2017-Mar-22 11:33N 36°50' E 013°23'1212.4
2017-Mar-22 10:33N 36°48' E 013°38'1312.8
2017-Mar-22 09:33N 36°46' E 013°54'1313.0
2017-Mar-22 08:33N 36°44' E 014°10'1312.6
2017-Mar-22 07:34N 36°41' E 014°25'1212.0
2017-Mar-22 06:33N 36°39' E 014°40'1312.7
2017-Mar-22 05:33N 36°37' E 014°56'56211.0
2017-Mar-20 02:26N 40°01' E 026°04'  
Track history (hours):
 
Tides and Currents Weather Stations Pressure Air Temp Water Temp Dewpoint Dewpoint Depression Visibility Wind Speed Wind Dir Waves Ship Positions

Purki

Last reported at 2017-Mar-22 14:20 UTC. Time now 2017-Mar-28 09:58 UTC.
Position N 36°57' E 012°40'.

Length 146 m; draft 9.1 m.

Type: Cargo ship. MMSI: 248495000.

Date/timePositionNaut miles runAvg speedWind from/ knotsBaromVisibWave heightAir tempDewpointWater temp
2017-Mar-22 14:20N 36°57' E 012°40'1512.4
2017-Mar-22 13:06N 36°54' E 012°59'712.6
2017-Mar-22 12:34N 36°53' E 013°08'1212.2
2017-Mar-22 11:33N 36°50' E 013°23'1212.4
2017-Mar-22 10:33N 36°48' E 013°38'1312.8
2017-Mar-22 09:33N 36°46' E 013°54'1313.0
2017-Mar-22 08:33N 36°44' E 014°10'1312.6
2017-Mar-22 07:34N 36°41' E 014°25'1212.0
2017-Mar-22 06:33N 36°39' E 014°40'1312.7
2017-Mar-22 05:33N 36°37' E 014°56'56211.0
2017-Mar-20 02:26N 40°01' E 026°04'  

Dump ship's entire track history